Ocean View, HI (96737)

10:26 PM HST on August 30, 2014 (GMT -1000)
Discovery Harbour Golf Course (KH6TA) | Change Station
CLOSE
Current Station
Personal Weather Station
Location: Naalehu, HI
Elevation: 1298 ft
Nearby Weather Stations

Elev 1298 ft 19.04 °N, 155.64 °W | Updated 2 minutes ago

Clear
Clear
-40.0 °F
Feels Like -57 °F
N
4.7
Wind Variable Wind from ESE

Today
High -- | Low -- °F
--% Chance of Precip.
Yesterday
High -- | Low -- °F
Precip. -- in
6:07 AM 6:38 PM
Waxing Crescent, 29% visible
Pressure 29.96 in
Visibility 10.0 miles
Clouds Clear
Windchill -57 °F
Dew Point -40 °F
Humidity 99%
Rainfall 0.00 in
Snow Depth Not available.
UV 0 out of 12
Pollen Not available.
Air Quality Not available.
Flu Activity Not available.
METAR PHKO 310753Z 13005KT 10SM CLR 26/19 A2996 RMK AO2 SLP146 T02610194 $

More Conditions Fewer Conditions

Pressure 29.96 in
Visibility 10.0 miles
Clouds Clear
Windchill -57 °F
Dew Point -40 °F
Humidity 99%
Rainfall 0.00 in
Snow Depth Not available.
UV 0 out of 12
Pollen Not available.
Air Quality Not available.
Flu Activity Not available.
METAR PHKO 310753Z 13005KT 10SM CLR 26/19 A2996 RMK AO2 SLP146 T02610194 $

More Conditions Fewer Conditions

10-Day Weather Forecast

Almanac

Astronomy

Aug. 30, 2014 Rise Set
Actual Time 6:07 AM HST 6:38 PM HST
Civil Twilight 5:45 AM HST 7:01 PM HST
Nautical Twilight 5:19 AM HST 7:27 PM HST
Astronomical Twilight 4:52 AM HST 7:53 PM HST
Moon 10:21 AM HST (8/30) 10:07 PM HST (8/30)
Length of Visible Light 13h 15m
Length of Day
12h 31m
Tomorrow will be 1m 1s shorter.
Waxing Crescent, 29% of the Moon is Illuminated
Aug 31
Waxing Crescent
Sep 2
First Quarter
Sep 8
Full
Sep 15
Last Quarter
Sep 24
New

Yesterday's Extremes

State Highs State Lows

Community

WunderPhotos

Upload Photos

1,748,820 photos uploaded!

Nearby

Snow Depth

Station Depth Elevation
No new snow has been reported.

Earthquake Activity

City Distance Mag. Time & Date
No recent earthquake activity has been reported nearby.
Minimum magnitude displayed is 2.5.

Coastal Water Temperatures

Place Temperature
No Stations Reporting

Nearby Weather Stations